Time;durP1;ratioP1;P1;durP2;ratioP2;P2;SDS_P1;SDS_P2;PMS_P1;PMS_P2;Temp;Humidity;BMP_temperature;BMP_pressure;BME280_temperature;BME280_humidity;BME280_pressure;Samples;Min_cycle;Max_cycle;Signal;HPM_P1;HPM_P2
2023/09/15 00:01:34;;;;;;;16.30;4.35;;;13.10;99.90;;;;;;5134124;27;20043;-72
2023/09/15 00:04:03;;;;;;;8.65;3.85;;;13.00;99.90;;;;;;5115399;28;20122;-72
2023/09/15 00:06:29;;;;;;;7.10;3.85;;;13.00;99.90;;;;;;5115295;28;20040;-72
2023/09/15 00:08:55;;;;;;;11.43;4.60;;;13.10;99.90;;;;;;5116997;27;20083;-72
2023/09/15 00:11:22;;;;;;;7.55;3.72;;;13.00;99.90;;;;;;5119600;27;20039;-72
2023/09/15 00:13:48;;;;;;;10.82;3.92;;;13.00;99.90;;;;;;5137512;27;20055;-72
2023/09/15 00:16:13;;;;;;;7.72;3.70;;;13.00;99.90;;;;;;5119240;27;20049;-72
2023/09/15 00:18:41;;;;;;;8.80;4.30;;;13.00;99.90;;;;;;5119050;27;20120;-72
2023/09/15 00:21:09;;;;;;;8.60;4.13;;;13.00;99.90;;;;;;5119280;27;20043;-72
2023/09/15 00:23:37;;;;;;;11.43;4.00;;;13.00;99.90;;;;;;5119007;27;20086;-72
2023/09/15 00:26:03;;;;;;;8.68;4.15;;;12.90;99.90;;;;;;5119233;27;20043;-72
2023/09/15 00:28:29;;;;;;;12.82;4.20;;;13.00;99.90;;;;;;5118796;27;20047;-72
2023/09/15 00:30:58;;;;;;;11.35;4.00;;;13.00;99.90;;;;;;5137081;27;20054;-72
2023/09/15 00:33:23;;;;;;;12.88;4.35;;;13.00;99.90;;;;;;5118722;27;20062;-72
2023/09/15 00:35:49;;;;;;;7.50;4.05;;;13.00;99.90;;;;;;5119053;27;20039;-72
2023/09/15 00:38:15;;;;;;;10.65;5.07;;;13.00;99.90;;;;;;5137120;27;20398;-72
2023/09/15 00:40:40;;;;;;;9.52;4.22;;;12.90;99.90;;;;;;5118950;27;20481;-72
2023/09/15 00:43:06;;;;;;;8.75;4.30;;;12.90;99.90;;;;;;5118753;27;20047;-72
2023/09/15 00:45:32;;;;;;;8.55;4.10;;;12.90;99.90;;;;;;5118535;27;20386;-72
2023/09/15 00:47:58;;;;;;;7.80;4.18;;;12.90;99.90;;;;;;5118787;27;20180;-72
2023/09/15 00:50:28;;;;;;;11.65;4.60;;;12.80;99.90;;;;;;5118482;27;20409;-72
2023/09/15 00:53:04;;;;;;;8.95;4.05;;;12.80;99.90;;;;;;5136856;27;20112;-72
2023/09/15 00:55:32;;;;;;;11.68;4.20;;;12.80;99.90;;;;;;5118706;27;20047;-72
2023/09/15 00:58:02;;;;;;;10.23;3.90;;;12.80;99.90;;;;;;5118561;27;20043;-72
2023/09/15 01:00:28;;;;;;;10.02;3.92;;;12.80;99.90;;;;;;5118477;27;20374;-72
2023/09/15 01:02:53;;;;;;;12.25;4.60;;;12.80;99.90;;;;;;5118505;27;20501;-72
2023/09/15 01:05:24;;;;;;;9.77;3.97;;;12.80;99.90;;;;;;5118448;27;20151;-72
2023/09/15 01:07:53;;;;;;;10.93;4.53;;;12.80;99.90;;;;;;5118445;27;20049;-72
2023/09/15 01:10:20;;;;;;;11.52;4.00;;;12.80;99.90;;;;;;5118301;27;20039;-72
2023/09/15 01:12:48;;;;;;;9.82;4.15;;;12.70;99.90;;;;;;5117806;27;20126;-72
2023/09/15 01:15:15;;;;;;;11.93;3.88;;;12.70;99.90;;;;;;5117975;27;20051;-72
2023/09/15 01:18:06;;;;;;;12.30;4.00;;;12.70;99.90;;;;;;5118224;27;20359;-72
2023/09/15 01:20:59;;;;;;;7.07;3.53;;;12.80;99.90;;;;;;5135927;27;20043;-72
2023/09/15 01:23:34;;;;;;;9.48;4.10;;;12.70;99.90;;;;;;5136170;27;20599;-72
2023/09/15 01:26:18;;;;;;;11.73;3.75;;;12.70;99.90;;;;;;5117755;27;20043;-72
2023/09/15 01:29:15;;;;;;;10.05;3.50;;;12.60;99.90;;;;;;5154390;27;20069;-73
2023/09/15 01:31:43;;;;;;;9.50;3.58;;;12.60;99.90;;;;;;5138019;27;20138;-71
2023/09/15 01:34:13;;;;;;;7.63;3.50;;;12.60;99.90;;;;;;5138045;27;20072;-72
2023/09/15 01:36:39;;;;;;;6.75;3.85;;;12.60;99.90;;;;;;5138220;27;20129;-72
2023/09/15 01:39:05;;;;;;;8.30;3.38;;;12.60;99.90;;;;;;5138193;27;20122;-72
2023/09/15 01:41:30;;;;;;;8.07;3.85;;;12.70;99.90;;;;;;5156380;27;20050;-72
2023/09/15 01:43:56;;;;;;;8.77;3.90;;;12.50;99.90;;;;;;5137922;27;20481;-72
2023/09/15 01:46:23;;;;;;;8.48;3.65;;;12.50;99.90;;;;;;5137963;27;20517;-72
2023/09/15 01:48:54;;;;;;;8.10;3.67;;;12.50;99.90;;;;;;5156489;27;20125;-72
2023/09/15 01:51:21;;;;;;;6.57;3.55;;;12.50;99.90;;;;;;5138212;27;20084;-72
2023/09/15 01:53:50;;;;;;;9.15;3.92;;;12.50;99.90;;;;;;5137645;27;20042;-72
2023/09/15 01:56:17;;;;;;;10.05;4.03;;;12.50;99.90;;;;;;5137689;27;20054;-72
2023/09/15 01:58:42;;;;;;;7.53;3.70;;;12.50;99.90;;;;;;5156204;27;20473;-72
2023/09/15 02:01:08;;;;;;;10.27;3.47;;;12.40;99.90;;;;;;5156289;27;20038;-72
2023/09/15 02:03:34;;;;;;;8.60;3.92;;;12.50;99.90;;;;;;5137686;27;20374;-72
2023/09/15 02:06:04;;;;;;;9.07;4.15;;;12.50;99.90;;;;;;5137566;27;20101;-72
2023/09/15 02:08:29;;;;;;;7.53;3.95;;;12.40;99.90;;;;;;5138382;27;20086;-73
2023/09/15 02:10:55;;;;;;;7.55;3.90;;;12.40;99.90;;;;;;5137743;27;20458;-72
2023/09/15 02:13:21;;;;;;;8.55;3.90;;;12.50;99.90;;;;;;5137623;27;20390;-72
2023/09/15 02:15:46;;;;;;;6.65;3.75;;;12.40;99.90;;;;;;5155963;27;20435;-72
2023/09/15 02:18:12;;;;;;;8.18;4.10;;;12.40;99.90;;;;;;5137671;27;20046;-72
2023/09/15 02:20:38;;;;;;;10.77;3.95;;;12.40;99.90;;;;;;5137387;27;20415;-72
2023/09/15 02:23:03;;;;;;;8.57;3.70;;;12.40;99.90;;;;;;5137129;27;20050;-72
2023/09/15 02:25:34;;;;;;;7.97;4.25;;;12.30;99.90;;;;;;5137443;27;20074;-72
2023/09/15 02:27:59;;;;;;;8.32;3.80;;;12.30;99.90;;;;;;5137068;27;20050;-72
2023/09/15 02:30:26;;;;;;;7.28;4.18;;;12.30;99.90;;;;;;5137047;27;20050;-72
2023/09/15 02:32:52;;;;;;;8.57;4.05;;;12.30;99.90;;;;;;5136728;27;20091;-72
2023/09/15 02:35:19;;;;;;;9.95;4.35;;;12.30;99.90;;;;;;5137158;27;20060;-72
2023/09/15 02:37:45;;;;;;;9.00;3.50;;;12.30;99.90;;;;;;5155658;27;20046;-72
2023/09/15 02:40:13;;;;;;;7.47;3.95;;;12.30;99.90;;;;;;5155505;27;20098;-72
2023/09/15 02:42:39;;;;;;;9.93;4.22;;;12.30;99.90;;;;;;5136934;27;20038;-72
2023/09/15 02:45:05;;;;;;;7.40;4.30;;;12.30;99.90;;;;;;5137018;27;20082;-72
2023/09/15 02:47:31;;;;;;;10.43;3.88;;;12.20;99.90;;;;;;5137250;27;20091;-72
2023/09/15 02:49:56;;;;;;;13.13;4.10;;;12.20;99.90;;;;;;5136925;27;20121;-72
2023/09/15 02:52:22;;;;;;;11.55;4.70;;;12.20;99.90;;;;;;5136861;27;20126;-72
2023/09/15 02:54:48;;;;;;;14.23;4.40;;;12.20;99.90;;;;;;5136837;27;20050;-72
2023/09/15 02:57:14;;;;;;;9.32;4.07;;;12.20;99.90;;;;;;5155434;27;20062;-72
2023/09/15 02:59:39;;;;;;;9.45;5.05;;;12.20;99.90;;;;;;5155323;27;20409;-71
2023/09/15 03:02:12;;;;;;;8.60;3.88;;;12.20;99.90;;;;;;5155392;27;20043;-72
2023/09/15 03:04:38;;;;;;;8.45;4.07;;;12.10;99.90;;;;;;5136968;27;20043;-72
2023/09/15 03:07:04;;;;;;;9.70;4.18;;;12.10;99.90;;;;;;5155249;27;20115;-72
2023/09/15 03:09:31;;;;;;;9.50;4.55;;;12.10;99.90;;;;;;5136628;27;20047;-72
2023/09/15 03:11:57;;;;;;;8.52;4.45;;;12.10;99.90;;;;;;5155282;27;20054;-72
2023/09/15 03:14:23;;;;;;;11.68;4.22;;;12.10;99.90;;;;;;5155188;27;20049;-72
2023/09/15 03:16:49;;;;;;;7.80;4.72;;;12.20;99.90;;;;;;5136739;27;20039;-72
2023/09/15 03:19:14;;;;;;;10.35;4.43;;;12.10;99.90;;;;;;5136772;27;20047;-72
2023/09/15 03:21:40;;;;;;;9.45;4.40;;;12.10;99.90;;;;;;5136426;27;20482;-72
2023/09/15 03:24:07;;;;;;;11.75;4.80;;;12.00;99.90;;;;;;5155402;27;20484;-72
2023/09/15 03:26:33;;;;;;;11.38;4.50;;;12.00;99.90;;;;;;5136481;27;20038;-71
2023/09/15 03:28:58;;;;;;;9.88;4.60;;;12.10;99.90;;;;;;5155165;27;20042;-72
2023/09/15 03:31:25;;;;;;;13.00;4.72;;;12.10;99.90;;;;;;5136188;27;20084;-72
2023/09/15 03:33:51;;;;;;;9.85;4.82;;;12.10;99.90;;;;;;5136211;27;20053;-72
2023/09/15 03:36:17;;;;;;;8.07;4.90;;;12.00;99.90;;;;;;5136419;27;20042;-72
2023/09/15 03:38:43;;;;;;;11.38;5.18;;;12.00;99.90;;;;;;5136493;27;20053;-72
2023/09/15 03:41:09;;;;;;;9.45;4.90;;;12.00;99.90;;;;;;5136529;27;20042;-72
2023/09/15 03:43:34;;;;;;;12.57;4.93;;;11.90;99.90;;;;;;5139357;27;20030;-73
2023/09/15 03:46:00;;;;;;;10.05;4.75;;;11.90;99.90;;;;;;5140462;27;20409;-72
2023/09/15 03:48:26;;;;;;;9.18;4.78;;;11.80;99.90;;;;;;5140484;27;20050;-72
2023/09/15 03:50:55;;;;;;;12.98;4.82;;;11.90;99.90;;;;;;5159101;27;20038;-72
2023/09/15 03:53:21;;;;;;;9.02;4.40;;;11.90;99.90;;;;;;5140182;27;20500;-72
2023/09/15 03:55:48;;;;;;;13.38;5.13;;;11.90;99.90;;;;;;5140386;27;20046;-72
2023/09/15 03:58:14;;;;;;;14.82;5.50;;;11.80;99.90;;;;;;5140561;27;20043;-72
2023/09/15 04:00:40;;;;;;;12.13;5.05;;;11.80;99.90;;;;;;5140228;27;20534;-72
2023/09/15 04:03:06;;;;;;;7.82;4.63;;;11.90;99.90;;;;;;5140058;27;20130;-72
2023/09/15 04:05:34;;;;;;;9.93;4.63;;;11.90;99.90;;;;;;5140069;27;20042;-72
2023/09/15 04:08:00;;;;;;;8.80;4.97;;;11.90;99.90;;;;;;5139836;27;20047;-72
2023/09/15 04:10:26;;;;;;;11.65;5.30;;;11.90;99.90;;;;;;5139902;27;20035;-72
2023/09/15 04:12:51;;;;;;;9.90;5.28;;;11.90;99.90;;;;;;5139798;27;20493;-72
2023/09/15 04:15:17;;;;;;;8.05;4.70;;;11.80;99.90;;;;;;5139807;27;20042;-72
2023/09/15 04:17:43;;;;;;;11.63;5.22;;;11.80;99.90;;;;;;5158306;27;20034;-72
2023/09/15 04:20:10;;;;;;;10.30;4.95;;;11.80;99.90;;;;;;5139637;27;20080;-72
2023/09/15 04:22:37;;;;;;;10.90;4.78;;;11.80;99.90;;;;;;5139597;27;20050;-72
2023/09/15 04:25:04;;;;;;;11.85;5.18;;;11.70;99.90;;;;;;5158032;27;20042;-72
2023/09/15 04:27:32;;;;;;;12.32;5.10;;;11.70;99.90;;;;;;5158144;27;20039;-72
2023/09/15 04:29:57;;;;;;;12.23;4.68;;;11.70;99.90;;;;;;5158068;27;20074;-72
2023/09/15 04:32:24;;;;;;;8.57;4.72;;;11.60;99.90;;;;;;5157681;27;20104;-72
2023/09/15 04:34:51;;;;;;;11.13;4.45;;;11.70;99.90;;;;;;5139206;27;20054;-72
2023/09/15 04:37:17;;;;;;;12.88;5.47;;;11.60;99.90;;;;;;5139305;27;20057;-72
2023/09/15 04:39:43;;;;;;;8.25;4.70;;;11.60;99.90;;;;;;5139593;27;20057;-72
2023/09/15 04:42:10;;;;;;;13.60;5.43;;;11.60;99.90;;;;;;5139358;27;20050;-72
2023/09/15 04:44:36;;;;;;;12.82;5.45;;;11.70;99.90;;;;;;5139771;27;20128;-72
2023/09/15 04:47:01;;;;;;;12.93;5.55;;;11.60;99.90;;;;;;5157809;27;20043;-72
2023/09/15 04:49:27;;;;;;;8.27;5.20;;;11.60;99.90;;;;;;5138963;27;20466;-72
2023/09/15 04:51:54;;;;;;;11.27;5.25;;;11.60;99.90;;;;;;5139120;27;20035;-72
2023/09/15 04:54:20;;;;;;;9.75;4.82;;;11.60;99.90;;;;;;5138201;27;20088;-72
2023/09/15 04:56:46;;;;;;;14.13;5.13;;;11.60;99.90;;;;;;5139147;27;20050;-71
2023/09/15 04:59:19;;;;;;;10.93;5.03;;;11.60;99.90;;;;;;5138886;27;20071;-72
2023/09/15 05:01:46;;;;;;;9.25;4.80;;;11.60;99.90;;;;;;5138435;27;20458;-72
2023/09/15 05:04:18;;;;;;;7.25;4.18;;;11.50;99.90;;;;;;5137664;27;20042;-71
2023/09/15 05:06:44;;;;;;;9.23;5.18;;;11.50;99.90;;;;;;5157406;27;20438;-71
2023/09/15 05:09:10;;;;;;;11.63;5.95;;;11.50;99.90;;;;;;5138736;27;20142;-72
2023/09/15 05:11:37;;;;;;;9.27;4.60;;;11.50;99.90;;;;;;5138635;27;20073;-72
2023/09/15 05:14:03;;;;;;;10.15;4.90;;;11.50;99.90;;;;;;5157136;27;20043;-71
2023/09/15 05:16:29;;;;;;;9.40;4.63;;;11.50;99.90;;;;;;5138343;27;20473;-72
2023/09/15 05:18:55;;;;;;;9.63;5.10;;;11.50;99.90;;;;;;5138454;27;20042;-72
2023/09/15 05:21:21;;;;;;;8.48;4.95;;;11.60;99.90;;;;;;5156820;27;20129;-71
2023/09/15 05:23:49;;;;;;;11.25;5.20;;;11.50;99.90;;;;;;5138411;27;20043;-72
2023/09/15 05:26:21;;;;;;;8.30;4.95;;;11.50;99.90;;;;;;5138295;27;20188;-71
2023/09/15 05:28:46;;;;;;;9.98;4.60;;;11.50;99.90;;;;;;5137693;27;20146;-72
2023/09/15 05:31:12;;;;;;;11.00;5.40;;;11.50;99.90;;;;;;5138087;27;20505;-72
2023/09/15 05:33:38;;;;;;;10.38;5.22;;;11.50;99.90;;;;;;5156380;27;20043;-72
2023/09/15 05:36:04;;;;;;;9.82;4.88;;;11.40;99.90;;;;;;5138279;27;20470;-72
2023/09/15 05:38:29;;;;;;;8.70;5.15;;;11.50;99.90;;;;;;5138123;27;20047;-72
2023/09/15 05:40:55;;;;;;;10.18;5.35;;;11.50;99.90;;;;;;5156397;27;20125;-72
2023/09/15 05:43:21;;;;;;;9.48;5.10;;;11.50;99.90;;;;;;5137745;27;20481;-72
2023/09/15 05:45:47;;;;;;;8.65;5.15;;;11.50;99.90;;;;;;5156500;27;20068;-72
2023/09/15 05:48:22;;;;;;;12.07;5.63;;;11.50;99.90;;;;;;5137756;27;20103;-72
2023/09/15 05:50:49;;;;;;;13.05;5.97;;;11.60;99.90;;;;;;5137640;27;20038;-73
2023/09/15 05:53:14;;;;;;;8.63;5.57;;;11.60;99.90;;;;;;5137450;27;20072;-71
2023/09/15 05:55:40;;;;;;;10.82;5.70;;;11.70;99.90;;;;;;5156285;27;20074;-72
2023/09/15 05:58:06;;;;;;;8.40;5.25;;;11.70;99.90;;;;;;5137618;27;20038;-72
2023/09/15 06:00:32;;;;;;;13.85;5.35;;;11.80;99.90;;;;;;5129051;27;20081;-77
2023/09/15 06:02:58;;;;;;;10.98;5.32;;;11.80;99.90;;;;;;5132567;27;20070;-71
2023/09/15 06:05:25;;;;;;;8.73;4.85;;;12.00;99.90;;;;;;5137067;27;20404;-73
2023/09/15 06:07:51;;;;;;;10.18;6.25;;;12.00;99.90;;;;;;5155834;27;20042;-71
2023/09/15 06:10:17;;;;;;;11.80;5.60;;;12.00;99.90;;;;;;5137085;27;20076;-71
2023/09/15 06:12:43;;;;;;;10.45;5.88;;;12.10;99.90;;;;;;5128493;27;20043;-71
2023/09/15 06:15:10;;;;;;;8.77;5.43;;;12.20;99.90;;;;;;5141871;27;20035;-72
2023/09/15 06:17:36;;;;;;;8.77;5.25;;;12.30;99.90;;;;;;5126941;27;20039;-72
2023/09/15 06:20:02;;;;;;;11.68;5.32;;;12.40;99.90;;;;;;5126383;27;20474;-72
2023/09/15 06:22:28;;;;;;;10.10;5.80;;;12.40;99.90;;;;;;5126932;27;20096;-72
2023/09/15 06:24:54;;;;;;;11.27;5.45;;;12.50;99.90;;;;;;5125858;27;20042;-72
2023/09/15 06:27:20;;;;;;;10.65;5.32;;;12.60;99.90;;;;;;5122443;27;20047;-72
2023/09/15 06:29:45;;;;;;;14.55;6.05;;;12.60;99.90;;;;;;5144912;27;20482;-71
2023/09/15 06:32:12;;;;;;;13.52;5.88;;;12.70;99.90;;;;;;5124864;27;20051;-72
2023/09/15 06:34:38;;;;;;;10.80;5.68;;;12.80;99.90;;;;;;5122009;27;20493;-72
2023/09/15 06:37:06;;;;;;;10.38;5.57;;;12.90;99.90;;;;;;5121807;27;20074;-72
2023/09/15 06:39:33;;;;;;;12.07;5.40;;;12.90;99.90;;;;;;5136770;27;20484;-72
2023/09/15 06:41:59;;;;;;;14.15;5.75;;;13.10;99.90;;;;;;5130116;27;20096;-71
2023/09/15 06:44:24;;;;;;;9.13;5.88;;;13.10;99.90;;;;;;5136803;27;20051;-71
2023/09/15 06:46:50;;;;;;;10.73;6.03;;;13.20;99.90;;;;;;5155246;27;20041;-71
2023/09/15 06:49:21;;;;;;;9.73;6.10;;;13.20;99.90;;;;;;5151127;27;20066;-72
2023/09/15 06:51:49;;;;;;;8.63;5.20;;;13.30;99.90;;;;;;5121380;27;20122;-71
2023/09/15 06:54:15;;;;;;;13.43;6.35;;;13.30;99.90;;;;;;5122789;27;20462;-71
2023/09/15 06:56:41;;;;;;;8.88;5.07;;;13.40;99.90;;;;;;5115830;28;20505;-72
2023/09/15 06:59:10;;;;;;;11.18;6.05;;;13.50;99.90;;;;;;5134244;27;20046;-72
2023/09/15 07:01:35;;;;;;;11.07;5.72;;;13.70;99.90;;;;;;5118350;27;20096;-72
2023/09/15 07:07:17;;;;;;;10.85;6.40;;;13.80;99.90;;;;;;5125810;27;20046;-72
2023/09/15 07:09:58;;;;;;;10.57;6.60;;;13.90;99.90;;;;;;5126656;27;20051;-72
2023/09/15 07:12:33;;;;;;;13.00;6.22;;;13.90;99.90;;;;;;5123775;28;20051;-72
2023/09/15 07:15:08;;;;;;;12.93;6.53;;;13.90;99.90;;;;;;5125600;27;20042;-71
2023/09/15 07:18:28;;;;;;;11.35;6.78;;;14.00;99.90;;;;;;5137270;27;20050;-77
2023/09/15 07:20:53;;;;;;;12.02;5.82;;;14.10;99.90;;;;;;5127110;27;20164;-71
2023/09/15 07:23:19;;;;;;;11.70;5.63;;;14.20;99.90;;;;;;5147774;27;20484;-71
2023/09/15 07:25:48;;;;;;;10.82;6.03;;;14.40;99.90;;;;;;5138601;27;20043;-70
2023/09/15 07:28:15;;;;;;;13.82;6.47;;;14.20;99.90;;;;;;5137996;27;20042;-70
2023/09/15 07:30:41;;;;;;;9.95;5.90;;;14.30;99.90;;;;;;5119397;27;20087;-73
2023/09/15 07:33:12;;;;;;;8.85;5.85;;;14.40;99.90;;;;;;5117828;27;20122;-72
2023/09/15 07:35:38;;;;;;;10.63;6.07;;;14.50;99.90;;;;;;5119076;27;20107;-71
2023/09/15 07:38:04;;;;;;;13.57;6.60;;;14.60;99.90;;;;;;5124326;27;20047;-72
2023/09/15 07:40:33;;;;;;;13.57;6.72;;;14.60;99.90;;;;;;5138225;27;20043;-72
2023/09/15 07:42:59;;;;;;;9.65;6.00;;;14.70;99.90;;;;;;5158746;27;20171;-71
2023/09/15 07:45:26;;;;;;;12.90;6.78;;;14.70;99.90;;;;;;5158498;27;20053;-72
2023/09/15 07:47:52;;;;;;;11.88;6.68;;;14.90;99.90;;;;;;5139799;27;20049;-73
2023/09/15 07:50:18;;;;;;;13.13;6.53;;;14.90;99.90;;;;;;5134859;27;20039;-72
2023/09/15 07:52:45;;;;;;;13.32;6.63;;;15.00;99.90;;;;;;5119120;27;20100;-72
2023/09/15 07:55:11;;;;;;;12.25;6.20;;;15.10;99.90;;;;;;5119119;27;20047;-72
2023/09/15 07:57:37;;;;;;;11.77;6.35;;;15.10;99.90;;;;;;5125253;27;20083;-73
2023/09/15 08:00:10;;;;;;;10.27;5.35;;;15.20;99.90;;;;;;5129553;27;20038;-72
2023/09/15 08:02:36;;;;;;;14.13;6.13;;;15.30;99.90;;;;;;5128114;27;20039;-72
2023/09/15 08:05:02;;;;;;;9.85;5.50;;;15.40;99.90;;;;;;5127126;27;20433;-72
2023/09/15 08:07:28;;;;;;;11.05;6.30;;;15.50;99.90;;;;;;5126239;27;20498;-72
2023/09/15 08:10:01;;;;;;;13.45;6.15;;;15.60;99.90;;;;;;5125055;27;20050;-72
2023/09/15 08:12:27;;;;;;;9.00;5.70;;;15.60;99.90;;;;;;5157976;27;20456;-74
2023/09/15 08:14:52;;;;;;;9.30;5.38;;;15.70;99.90;;;;;;5157851;27;20043;-71
2023/09/15 08:17:21;;;;;;;9.85;6.15;;;15.80;99.90;;;;;;5139574;27;20053;-71
2023/09/15 08:19:47;;;;;;;9.45;5.35;;;15.90;99.90;;;;;;5125803;27;20414;-71
2023/09/15 08:22:13;;;;;;;11.15;5.63;;;16.00;99.90;;;;;;5118668;27;20478;-71
2023/09/15 08:24:39;;;;;;;9.13;5.30;;;16.00;99.90;;;;;;5118687;27;20090;-71
2023/09/15 08:27:05;;;;;;;10.13;5.63;;;16.10;99.90;;;;;;5118900;27;20078;-71
2023/09/15 08:29:30;;;;;;;12.80;5.10;;;16.20;99.90;;;;;;5117501;27;20465;-70
2023/09/15 08:32:05;;;;;;;10.30;5.15;;;16.30;99.90;;;;;;5118402;27;20466;-71
2023/09/15 08:34:31;;;;;;;11.40;5.30;;;16.40;99.90;;;;;;5118534;27;20103;-71
2023/09/15 08:36:59;;;;;;;7.78;5.75;;;16.50;99.90;;;;;;5136920;27;20043;-73
2023/09/15 08:39:25;;;;;;;10.73;5.00;;;16.50;99.90;;;;;;5118613;27;20545;-70
2023/09/15 08:41:56;;;;;;;11.50;5.15;;;16.60;99.90;;;;;;5136699;27;20118;-70
2023/09/15 08:44:23;;;;;;;13.30;5.65;;;16.70;99.90;;;;;;5118482;27;20062;-79
2023/09/15 08:46:50;;;;;;;10.75;5.43;;;16.80;99.90;;;;;;5118465;27;20067;-78
2023/09/15 08:49:16;;;;;;;11.02;5.30;;;16.90;99.90;;;;;;5118386;27;20403;-75
2023/09/15 08:51:46;;;;;;;8.55;5.10;;;17.00;99.90;;;;;;5136449;27;20058;-80
2023/09/15 08:54:13;;;;;;;10.23;5.25;;;17.00;99.90;;;;;;5118103;27;20040;-71
2023/09/15 08:56:39;;;;;;;12.98;5.13;;;17.10;99.90;;;;;;5117747;27;20575;-71
2023/09/15 08:59:06;;;;;;;9.23;5.07;;;17.20;99.90;;;;;;5117920;27;20129;-71
2023/09/15 09:01:32;;;;;;;7.78;5.43;;;17.20;99.90;;;;;;5118092;27;20043;-71
2023/09/15 09:03:58;;;;;;;7.82;4.68;;;17.30;99.90;;;;;;5117890;27;20051;-73
2023/09/15 09:06:26;;;;;;;10.40;5.75;;;17.40;99.90;;;;;;5118059;27;20084;-73
2023/09/15 09:08:54;;;;;;;14.82;5.20;;;17.40;99.90;;;;;;5117688;27;20078;-73
2023/09/15 09:11:20;;;;;;;12.00;4.50;;;17.50;99.90;;;;;;5117862;27;20039;-74
2023/09/15 09:13:51;;;;;;;9.98;4.97;;;17.60;99.90;;;;;;5117715;27;20043;-74
2023/09/15 09:16:16;;;;;;;12.13;4.90;;;17.60;99.90;;;;;;5117596;27;20409;-74
2023/09/15 09:18:42;;;;;;;11.43;4.85;;;17.70;99.90;;;;;;5117693;27;20053;-74
2023/09/15 09:21:08;;;;;;;12.07;5.38;;;17.80;99.90;;;;;;5117778;27;20039;-74
2023/09/15 09:23:34;;;;;;;12.75;4.68;;;17.80;99.90;;;;;;5117553;27;20363;-74
2023/09/15 09:26:00;;;;;;;8.73;4.45;;;17.90;99.90;;;;;;5117491;27;20076;-74
2023/09/15 09:28:26;;;;;;;10.48;4.28;;;17.90;99.90;;;;;;5117318;27;20077;-74
2023/09/15 09:30:56;;;;;;;9.40;4.05;;;17.90;99.90;;;;;;5135733;27;20039;-73
2023/09/15 09:33:23;;;;;;;9.32;4.03;;;18.00;99.90;;;;;;5117173;27;20047;-75
2023/09/15 09:35:49;;;;;;;6.18;3.45;;;18.20;99.90;;;;;;5117481;27;20108;-74
2023/09/15 09:38:15;;;;;;;10.65;3.30;;;18.30;99.90;;;;;;5116972;27;20430;-72
2023/09/15 09:40:44;;;;;;;9.00;3.28;;;18.40;99.90;;;;;;5116712;27;20043;-74
2023/09/15 09:43:12;;;;;;;7.90;3.15;;;18.50;99.90;;;;;;5116959;27;20050;-72
2023/09/15 09:45:38;;;;;;;6.72;2.80;;;18.60;99.90;;;;;;5116869;27;20035;-72
2023/09/15 09:48:04;;;;;;;11.55;4.00;;;18.70;99.90;;;;;;5117278;27;20051;-71
2023/09/15 09:50:31;;;;;;;8.68;3.58;;;18.70;99.90;;;;;;5135365;27;20367;-70
2023/09/15 09:52:57;;;;;;;8.35;3.70;;;18.80;99.90;;;;;;5116698;27;20047;-71
2023/09/15 09:55:25;;;;;;;11.13;3.53;;;18.90;99.90;;;;;;5135432;27;20035;-71
2023/09/15 09:58:01;;;;;;;9.73;3.35;;;19.00;99.90;;;;;;5134672;27;20506;-71
2023/09/15 10:00:36;;;;;;;11.98;3.92;;;19.00;99.90;;;;;;5116780;27;20051;-71
2023/09/15 10:03:02;;;;;;;8.65;3.50;;;19.00;99.90;;;;;;5116951;27;20054;-71
2023/09/15 10:05:31;;;;;;;8.15;3.75;;;19.00;99.90;;;;;;5136847;27;20046;-72
2023/09/15 10:07:57;;;;;;;9.80;3.78;;;19.00;99.90;;;;;;5122557;27;20050;-72
2023/09/15 10:10:23;;;;;;;7.65;3.50;;;19.20;99.90;;;;;;5144200;27;20046;-71
2023/09/15 10:12:49;;;;;;;9.70;4.03;;;19.20;99.90;;;;;;5116521;27;20047;-72
2023/09/15 10:15:15;;;;;;;10.00;3.92;;;19.20;99.90;;;;;;5116944;27;20047;-73
2023/09/15 10:17:42;;;;;;;9.98;3.75;;;19.20;99.90;;;;;;5124505;27;20050;-73
2023/09/15 10:20:08;;;;;;;7.88;3.38;;;19.20;99.90;;;;;;5121889;27;20108;-72
2023/09/15 10:22:34;;;;;;;9.13;3.92;;;19.30;99.90;;;;;;5141435;27;20053;-72
2023/09/15 10:25:01;;;;;;;11.00;3.80;;;19.40;99.90;;;;;;5126976;27;20163;-73
2023/09/15 10:27:29;;;;;;;8.88;3.33;;;19.50;99.90;;;;;;5096372;27;20472;-71
2023/09/15 10:30:06;;;;;;;8.05;3.67;;;19.50;99.90;;;;;;5094790;27;20111;-71
2023/09/15 10:32:39;;;;;;;6.53;3.78;;;19.70;99.90;;;;;;5123236;27;20051;-72
2023/09/15 10:35:06;;;;;;;10.38;3.60;;;19.70;99.90;;;;;;5124814;27;20067;-73
2023/09/15 10:37:33;;;;;;;6.82;4.15;;;19.70;99.90;;;;;;5093272;27;20643;-70
2023/09/15 10:39:59;;;;;;;10.25;3.80;;;19.70;99.90;;;;;;5125765;27;20043;-73
2023/09/15 10:42:28;;;;;;;10.48;4.32;;;19.60;99.90;;;;;;5116280;27;20062;-73
2023/09/15 10:44:54;;;;;;;10.85;3.78;;;19.70;99.90;;;;;;5116531;27;20087;-73
2023/09/15 10:47:21;;;;;;;8.40;4.28;;;19.90;99.90;;;;;;5134628;27;20043;-73
2023/09/15 10:49:56;;;;;;;6.68;3.63;;;20.00;99.90;;;;;;5113394;27;20043;-73
2023/09/15 10:52:33;;;;;;;8.13;4.32;;;20.00;99.90;;;;;;5126675;27;20034;-73
2023/09/15 10:55:02;;;;;;;9.52;4.00;;;20.10;99.90;;;;;;5136474;27;20115;-73
2023/09/15 10:57:28;;;;;;;9.82;4.18;;;20.20;99.90;;;;;;5154843;27;20062;-73
2023/09/15 10:59:56;;;;;;;7.85;3.75;;;20.30;99.90;;;;;;5155032;27;20047;-72
2023/09/15 11:02:25;;;;;;;9.85;4.30;;;20.40;99.90;;;;;;5136108;27;20042;-72
2023/09/15 11:04:51;;;;;;;8.52;4.85;;;20.50;99.90;;;;;;5155148;27;20035;-73
2023/09/15 11:07:19;;;;;;;9.07;4.55;;;20.50;99.90;;;;;;5136562;27;20461;-73
2023/09/15 11:09:45;;;;;;;9.15;5.18;;;20.50;99.90;;;;;;5126967;27;20130;-73
2023/09/15 11:12:14;;;;;;;9.55;4.47;;;20.50;99.90;;;;;;5116220;28;20220;-73
2023/09/15 11:14:55;;;;;;;8.80;4.15;;;20.50;99.90;;;;;;5116082;28;20069;-74
2023/09/15 11:17:21;;;;;;;12.25;5.15;;;20.70;99.90;;;;;;5116049;28;20058;-74
2023/09/15 11:19:47;;;;;;;11.20;5.07;;;20.60;99.90;;;;;;5134122;27;20439;-74
2023/09/15 11:22:13;;;;;;;9.63;4.90;;;20.60;99.90;;;;;;5146776;27;20043;-74
2023/09/15 11:24:39;;;;;;;8.75;4.18;;;20.50;99.90;;;;;;5136248;27;20051;-73
2023/09/15 11:27:05;;;;;;;10.55;4.40;;;20.70;99.90;;;;;;5136439;27;20133;-73
2023/09/15 11:29:31;;;;;;;9.60;4.65;;;20.70;99.90;;;;;;5136378;27;20133;-73
2023/09/15 11:31:59;;;;;;;9.07;4.57;;;20.70;99.90;;;;;;5154612;27;20116;-73
2023/09/15 11:34:26;;;;;;;12.07;5.10;;;20.70;99.90;;;;;;5136084;27;20503;-73
2023/09/15 11:36:59;;;;;;;11.18;4.85;;;21.00;99.90;;;;;;5135969;27;20122;-73
2023/09/15 11:39:25;;;;;;;10.15;5.10;;;21.00;99.90;;;;;;5136021;27;20079;-73
2023/09/15 11:41:54;;;;;;;10.45;4.82;;;21.10;99.90;;;;;;5135950;27;20078;-73
2023/09/15 11:44:24;;;;;;;9.40;5.40;;;21.20;99.90;;;;;;5153917;27;20113;-73
2023/09/15 11:46:51;;;;;;;10.77;5.38;;;21.20;99.90;;;;;;5135870;27;20049;-74
2023/09/15 11:49:18;;;;;;;11.70;6.63;;;21.20;99.90;;;;;;5154419;27;20038;-73
2023/09/15 11:51:46;;;;;;;10.32;5.97;;;21.00;99.90;;;;;;5154585;27;20122;-76
2023/09/15 11:54:12;;;;;;;11.10;5.70;;;21.00;99.90;;;;;;5146981;27;20043;-80
2023/09/15 11:56:42;;;;;;;14.77;6.30;;;20.90;99.90;;;;;;5129674;27;20083;-72
2023/09/15 11:59:08;;;;;;;11.32;6.85;;;20.70;99.90;;;;;;5144728;27;20047;-73
2023/09/15 12:01:36;;;;;;;11.45;5.28;;;20.80;99.90;;;;;;5136450;27;20046;-71
2023/09/15 12:04:03;;;;;;;11.07;5.85;;;21.10;99.90;;;;;;5155797;27;20050;-74
2023/09/15 12:06:31;;;;;;;9.15;5.35;;;21.20;99.90;;;;;;5139806;27;20049;-73
2023/09/15 12:08:57;;;;;;;10.82;5.30;;;21.30;99.90;;;;;;5140104;27;20537;-74
2023/09/15 12:11:23;;;;;;;12.65;6.18;;;21.30;99.90;;;;;;5140033;27;20038;-73
2023/09/15 12:13:52;;;;;;;8.80;6.00;;;21.30;99.90;;;;;;5157771;27;20035;-73
2023/09/15 12:16:36;;;;;;;10.40;5.68;;;21.10;99.90;;;;;;5139425;27;20160;-73
2023/09/15 12:19:04;;;;;;;10.73;5.53;;;21.30;99.90;;;;;;5139926;27;20042;-73
2023/09/15 12:21:30;;;;;;;9.68;4.70;;;21.20;99.90;;;;;;5139593;27;20081;-73
2023/09/15 12:24:08;;;;;;;9.93;5.13;;;21.20;99.90;;;;;;5139557;27;20070;-73
2023/09/15 12:26:34;;;;;;;9.68;5.13;;;21.30;99.90;;;;;;5139537;27;20051;-73
2023/09/15 12:29:02;;;;;;;11.60;5.32;;;21.30;99.90;;;;;;5157887;27;20363;-74
2023/09/15 12:31:28;;;;;;;10.45;5.20;;;21.20;99.90;;;;;;5139062;27;20059;-73
2023/09/15 12:33:55;;;;;;;9.85;4.93;;;21.40;99.90;;;;;;5158018;27;20050;-73
2023/09/15 12:36:22;;;;;;;7.70;5.45;;;21.40;99.90;;;;;;5139528;27;20050;-73
2023/09/15 12:38:48;;;;;;;10.27;5.13;;;21.30;99.90;;;;;;5139186;27;20043;-72
2023/09/15 12:41:14;;;;;;;8.55;5.03;;;21.30;99.90;;;;;;5139146;27;20038;-77
2023/09/15 12:43:41;;;;;;;8.35;5.00;;;21.40;99.90;;;;;;5138868;27;20481;-74
2023/09/15 12:46:06;;;;;;;12.75;5.63;;;21.50;99.90;;;;;;5139221;27;20050;-73